sensor_id;sensor_type;location;lat;lon;timestamp;temperature;humidity
64549;DHT22;49838;51.798;10.954;2022-09-03T00:01:23;21.90;24.50
64549;DHT22;49838;51.798;10.954;2022-09-03T00:04:01;21.90;24.60
64549;DHT22;49838;51.798;10.954;2022-09-03T00:06:35;21.80;24.60
64549;DHT22;49838;51.798;10.954;2022-09-03T00:09:06;21.80;25.10
64549;DHT22;49838;51.798;10.954;2022-09-03T00:11:38;21.70;24.60
64549;DHT22;49838;51.798;10.954;2022-09-03T00:14:13;21.70;24.60
64549;DHT22;49838;51.798;10.954;2022-09-03T00:16:45;21.60;24.60
64549;DHT22;49838;51.798;10.954;2022-09-03T00:19:22;21.60;24.60
64549;DHT22;49838;51.798;10.954;2022-09-03T00:21:55;21.60;24.60
64549;DHT22;49838;51.798;10.954;2022-09-03T00:24:27;21.50;24.60
64549;DHT22;49838;51.798;10.954;2022-09-03T00:27:00;21.40;24.50
64549;DHT22;49838;51.798;10.954;2022-09-03T00:29:34;21.40;24.60
64549;DHT22;49838;51.798;10.954;2022-09-03T00:32:06;21.40;24.60
64549;DHT22;49838;51.798;10.954;2022-09-03T00:34:40;21.40;24.60
64549;DHT22;49838;51.798;10.954;2022-09-03T00:37:10;21.30;25.00
64549;DHT22;49838;51.798;10.954;2022-09-03T00:39:38;21.30;24.60
64549;DHT22;49838;51.798;10.954;2022-09-03T00:42:10;21.30;24.50
64549;DHT22;49838;51.798;10.954;2022-09-03T00:44:54;21.20;24.50
64549;DHT22;49838;51.798;10.954;2022-09-03T00:47:40;21.20;24.60
64549;DHT22;49838;51.798;10.954;2022-09-03T00:50:18;21.10;24.60
64549;DHT22;49838;51.798;10.954;2022-09-03T00:52:57;21.00;24.50
64549;DHT22;49838;51.798;10.954;2022-09-03T00:55:31;21.00;24.50
64549;DHT22;49838;51.798;10.954;2022-09-03T00:58:19;21.10;24.60
64549;DHT22;49838;51.798;10.954;2022-09-03T01:01:09;21.00;24.50
64549;DHT22;49838;51.798;10.954;2022-09-03T01:03:45;21.00;24.50
64549;DHT22;49838;51.798;10.954;2022-09-03T01:06:27;21.00;24.50
64549;DHT22;49838;51.798;10.954;2022-09-03T01:09:09;21.00;24.50
64549;DHT22;49838;51.798;10.954;2022-09-03T01:11:49;21.00;24.60
64549;DHT22;49838;51.798;10.954;2022-09-03T01:14:28;20.90;24.60
64549;DHT22;49838;51.798;10.954;2022-09-03T01:17:04;20.90;24.60
64549;DHT22;49838;51.798;10.954;2022-09-03T01:19:51;20.90;24.60
64549;DHT22;49838;51.798;10.954;2022-09-03T01:22:42;20.80;24.60
64549;DHT22;49838;51.798;10.954;2022-09-03T01:25:37;20.80;24.50
64549;DHT22;49838;51.798;10.954;2022-09-03T01:28:28;20.80;24.50
64549;DHT22;49838;51.798;10.954;2022-09-03T01:31:07;20.70;24.50
64549;DHT22;49838;51.798;10.954;2022-09-03T01:33:43;20.70;24.50
64549;DHT22;49838;51.798;10.954;2022-09-03T01:36:19;20.70;24.60
64549;DHT22;49838;51.798;10.954;2022-09-03T01:38:55;20.60;24.60
64549;DHT22;49838;51.798;10.954;2022-09-03T01:41:30;20.60;24.60
64549;DHT22;49838;51.798;10.954;2022-09-03T01:44:30;20.60;24.60
64549;DHT22;49838;51.798;10.954;2022-09-03T01:47:34;20.50;24.50
64549;DHT22;49838;51.798;10.954;2022-09-03T01:50:17;20.50;24.60
64549;DHT22;49838;51.798;10.954;2022-09-03T01:52:54;20.40;24.50
64549;DHT22;49838;51.798;10.954;2022-09-03T01:55:28;20.40;24.50
64549;DHT22;49838;51.798;10.954;2022-09-03T01:57:59;20.40;24.60
64549;DHT22;49838;51.798;10.954;2022-09-03T02:00:32;20.40;24.60
64549;DHT22;49838;51.798;10.954;2022-09-03T02:03:06;20.30;24.60
64549;DHT22;49838;51.798;10.954;2022-09-03T02:05:36;20.30;24.70
64549;DHT22;49838;51.798;10.954;2022-09-03T02:08:04;20.30;24.70
64549;DHT22;49838;51.798;10.954;2022-09-03T02:10:37;20.30;24.70
64549;DHT22;49838;51.798;10.954;2022-09-03T02:13:08;20.20;24.70
64549;DHT22;49838;51.798;10.954;2022-09-03T02:15:41;20.20;24.70
64549;DHT22;49838;51.798;10.954;2022-09-03T02:18:14;20.20;24.70
64549;DHT22;49838;51.798;10.954;2022-09-03T02:20:44;20.20;24.70
64549;DHT22;49838;51.798;10.954;2022-09-03T02:23:13;20.10;24.70
64549;DHT22;49838;51.798;10.954;2022-09-03T02:25:43;20.10;24.70
64549;DHT22;49838;51.798;10.954;2022-09-03T02:28:13;20.20;24.80
64549;DHT22;49838;51.798;10.954;2022-09-03T02:30:41;20.20;24.80
64549;DHT22;49838;51.798;10.954;2022-09-03T02:33:08;20.20;24.70
64549;DHT22;49838;51.798;10.954;2022-09-03T02:35:37;20.20;24.80
64549;DHT22;49838;51.798;10.954;2022-09-03T02:38:09;20.20;24.80
64549;DHT22;49838;51.798;10.954;2022-09-03T02:40:37;20.30;24.90
64549;DHT22;49838;51.798;10.954;2022-09-03T02:43:07;20.30;24.90
64549;DHT22;49838;51.798;10.954;2022-09-03T02:45:39;20.30;24.90
64549;DHT22;49838;51.798;10.954;2022-09-03T02:48:11;20.30;24.90
64549;DHT22;49838;51.798;10.954;2022-09-03T02:50:43;20.40;24.90
64549;DHT22;49838;51.798;10.954;2022-09-03T02:53:10;20.40;24.90
64549;DHT22;49838;51.798;10.954;2022-09-03T02:55:37;20.40;24.90
64549;DHT22;49838;51.798;10.954;2022-09-03T02:58:05;20.40;24.90
64549;DHT22;49838;51.798;10.954;2022-09-03T03:00:33;20.50;25.00
64549;DHT22;49838;51.798;10.954;2022-09-03T03:03:00;20.50;25.00
64549;DHT22;49838;51.798;10.954;2022-09-03T03:05:29;20.60;25.00
64549;DHT22;49838;51.798;10.954;2022-09-03T03:08:06;20.60;25.00
64549;DHT22;49838;51.798;10.954;2022-09-03T03:10:33;20.60;25.10
64549;DHT22;49838;51.798;10.954;2022-09-03T03:13:02;20.70;25.10
64549;DHT22;49838;51.798;10.954;2022-09-03T03:15:30;20.60;25.10
64549;DHT22;49838;51.798;10.954;2022-09-03T03:17:57;20.70;25.00
64549;DHT22;49838;51.798;10.954;2022-09-03T03:20:24;20.70;25.10
64549;DHT22;49838;51.798;10.954;2022-09-03T03:22:51;20.70;25.10
64549;DHT22;49838;51.798;10.954;2022-09-03T03:25:20;20.70;25.10
64549;DHT22;49838;51.798;10.954;2022-09-03T03:27:47;20.70;25.20
64549;DHT22;49838;51.798;10.954;2022-09-03T03:30:14;20.70;25.10
64549;DHT22;49838;51.798;10.954;2022-09-03T03:32:42;20.70;25.20
64549;DHT22;49838;51.798;10.954;2022-09-03T03:35:09;20.70;25.10
64549;DHT22;49838;51.798;10.954;2022-09-03T03:37:37;20.70;25.20
64549;DHT22;49838;51.798;10.954;2022-09-03T03:40:04;20.70;25.20
64549;DHT22;49838;51.798;10.954;2022-09-03T03:42:33;20.60;25.20
64549;DHT22;49838;51.798;10.954;2022-09-03T03:45:01;20.60;25.20
64549;DHT22;49838;51.798;10.954;2022-09-03T03:47:28;20.60;25.20
64549;DHT22;49838;51.798;10.954;2022-09-03T03:49:55;20.60;25.20
64549;DHT22;49838;51.798;10.954;2022-09-03T03:52:23;20.60;25.30
64549;DHT22;49838;51.798;10.954;2022-09-03T03:54:51;20.50;25.20
64549;DHT22;49838;51.798;10.954;2022-09-03T03:57:19;20.50;25.20
64549;DHT22;49838;51.798;10.954;2022-09-03T03:59:49;20.40;25.20
64549;DHT22;49838;51.798;10.954;2022-09-03T04:02:16;20.40;25.20
64549;DHT22;49838;51.798;10.954;2022-09-03T04:04:44;20.40;25.20
64549;DHT22;49838;51.798;10.954;2022-09-03T04:07:11;20.30;25.20
64549;DHT22;49838;51.798;10.954;2022-09-03T04:09:38;20.30;25.20
64549;DHT22;49838;51.798;10.954;2022-09-03T04:12:06;20.30;25.20
64549;DHT22;49838;51.798;10.954;2022-09-03T04:14:33;20.20;25.20
64549;DHT22;49838;51.798;10.954;2022-09-03T04:17:03;20.10;25.20
64549;DHT22;49838;51.798;10.954;2022-09-03T04:19:30;20.10;25.20
64549;DHT22;49838;51.798;10.954;2022-09-03T04:21:57;20.10;25.20
64549;DHT22;49838;51.798;10.954;2022-09-03T04:24:25;20.00;25.20
64549;DHT22;49838;51.798;10.954;2022-09-03T04:26:52;20.00;25.30
64549;DHT22;49838;51.798;10.954;2022-09-03T04:29:19;20.00;25.30
64549;DHT22;49838;51.798;10.954;2022-09-03T04:31:47;20.00;25.30
64549;DHT22;49838;51.798;10.954;2022-09-03T04:34:30;19.90;25.20
64549;DHT22;49838;51.798;10.954;2022-09-03T04:36:57;19.90;25.20
64549;DHT22;49838;51.798;10.954;2022-09-03T04:39:25;19.90;25.20
64549;DHT22;49838;51.798;10.954;2022-09-03T04:41:52;19.90;25.20
64549;DHT22;49838;51.798;10.954;2022-09-03T04:44:20;19.90;25.10
64549;DHT22;49838;51.798;10.954;2022-09-03T04:46:47;19.90;25.20
64549;DHT22;49838;51.798;10.954;2022-09-03T04:49:14;20.00;25.30
64549;DHT22;49838;51.798;10.954;2022-09-03T04:51:43;20.00;25.30
64549;DHT22;49838;51.798;10.954;2022-09-03T04:54:10;20.00;25.30
64549;DHT22;49838;51.798;10.954;2022-09-03T04:56:37;20.00;25.30
64549;DHT22;49838;51.798;10.954;2022-09-03T04:59:08;20.00;25.40
64549;DHT22;49838;51.798;10.954;2022-09-03T05:01:36;20.00;25.40
64549;DHT22;49838;51.798;10.954;2022-09-03T05:04:06;20.00;25.40
64549;DHT22;49838;51.798;10.954;2022-09-03T05:06:34;20.00;25.20
64549;DHT22;49838;51.798;10.954;2022-09-03T05:09:04;20.10;25.40
64549;DHT22;49838;51.798;10.954;2022-09-03T05:11:32;20.10;25.40
64549;DHT22;49838;51.798;10.954;2022-09-03T05:13:59;20.10;25.40
64549;DHT22;49838;51.798;10.954;2022-09-03T05:16:27;20.20;25.50
64549;DHT22;49838;51.798;10.954;2022-09-03T05:18:56;20.20;25.60
64549;DHT22;49838;51.798;10.954;2022-09-03T05:21:26;20.20;25.50
64549;DHT22;49838;51.798;10.954;2022-09-03T05:23:54;20.30;25.60
64549;DHT22;49838;51.798;10.954;2022-09-03T05:26:25;20.40;25.60
64549;DHT22;49838;51.798;10.954;2022-09-03T05:28:53;20.40;25.60
64549;DHT22;49838;51.798;10.954;2022-09-03T05:31:22;20.50;25.70
64549;DHT22;49838;51.798;10.954;2022-09-03T05:33:53;20.60;25.70
64549;DHT22;49838;51.798;10.954;2022-09-03T05:36:23;20.60;25.80
64549;DHT22;49838;51.798;10.954;2022-09-03T05:38:52;20.70;25.80
64549;DHT22;49838;51.798;10.954;2022-09-03T05:41:21;20.80;25.70
64549;DHT22;49838;51.798;10.954;2022-09-03T05:43:51;21.00;26.10
64549;DHT22;49838;51.798;10.954;2022-09-03T05:46:21;21.60;26.40
64549;DHT22;49838;51.798;10.954;2022-09-03T05:48:51;22.10;26.50
64549;DHT22;49838;51.798;10.954;2022-09-03T05:51:18;22.80;26.60
64549;DHT22;49838;51.798;10.954;2022-09-03T05:53:46;23.40;26.80
64549;DHT22;49838;51.798;10.954;2022-09-03T05:56:15;23.90;26.90
64549;DHT22;49838;51.798;10.954;2022-09-03T05:58:45;24.50;27.10
64549;DHT22;49838;51.798;10.954;2022-09-03T06:01:15;25.00;27.20
64549;DHT22;49838;51.798;10.954;2022-09-03T06:03:45;25.50;27.20
64549;DHT22;49838;51.798;10.954;2022-09-03T06:06:14;26.00;27.30
64549;DHT22;49838;51.798;10.954;2022-09-03T06:08:41;26.50;27.40
64549;DHT22;49838;51.798;10.954;2022-09-03T06:11:09;26.90;27.30
64549;DHT22;49838;51.798;10.954;2022-09-03T06:13:38;27.20;27.30
64549;DHT22;49838;51.798;10.954;2022-09-03T06:16:06;27.60;27.40
64549;DHT22;49838;51.798;10.954;2022-09-03T06:18:35;28.00;27.40
64549;DHT22;49838;51.798;10.954;2022-09-03T06:21:03;28.40;27.40
64549;DHT22;49838;51.798;10.954;2022-09-03T06:23:33;28.60;27.30
64549;DHT22;49838;51.798;10.954;2022-09-03T06:26:02;28.90;27.30
64549;DHT22;49838;51.798;10.954;2022-09-03T06:28:30;29.20;27.30
64549;DHT22;49838;51.798;10.954;2022-09-03T06:30:59;29.40;27.30
64549;DHT22;49838;51.798;10.954;2022-09-03T06:33:27;29.60;27.30
64549;DHT22;49838;51.798;10.954;2022-09-03T06:35:57;29.90;27.40
64549;DHT22;49838;51.798;10.954;2022-09-03T06:38:26;30.10;27.30
64549;DHT22;49838;51.798;10.954;2022-09-03T06:40:57;30.30;27.10
64549;DHT22;49838;51.798;10.954;2022-09-03T06:43:27;30.40;27.00
64549;DHT22;49838;51.798;10.954;2022-09-03T06:45:55;30.60;27.10
64549;DHT22;49838;51.798;10.954;2022-09-03T06:48:23;30.80;27.10
64549;DHT22;49838;51.798;10.954;2022-09-03T06:50:55;30.80;26.80
64549;DHT22;49838;51.798;10.954;2022-09-03T06:53:25;31.00;27.10
64549;DHT22;49838;51.798;10.954;2022-09-03T06:55:54;31.20;27.20
64549;DHT22;49838;51.798;10.954;2022-09-03T06:58:22;31.50;27.30
64549;DHT22;49838;51.798;10.954;2022-09-03T07:00:50;31.70;27.20
64549;DHT22;49838;51.798;10.954;2022-09-03T07:03:19;32.00;27.20
64549;DHT22;49838;51.798;10.954;2022-09-03T07:05:46;32.10;27.20
64549;DHT22;49838;51.798;10.954;2022-09-03T07:08:13;32.30;27.30
64549;DHT22;49838;51.798;10.954;2022-09-03T07:10:45;32.40;27.00
64549;DHT22;49838;51.798;10.954;2022-09-03T07:13:13;32.60;27.20
64549;DHT22;49838;51.798;10.954;2022-09-03T07:15:41;32.80;27.10
64549;DHT22;49838;51.798;10.954;2022-09-03T07:18:08;33.00;27.20
64549;DHT22;49838;51.798;10.954;2022-09-03T07:20:35;33.20;27.10
64549;DHT22;49838;51.798;10.954;2022-09-03T07:23:08;33.50;26.90
64549;DHT22;49838;51.798;10.954;2022-09-03T07:25:35;33.60;26.80
64549;DHT22;49838;51.798;10.954;2022-09-03T07:28:05;33.70;26.70
64549;DHT22;49838;51.798;10.954;2022-09-03T07:30:32;33.80;26.90
64549;DHT22;49838;51.798;10.954;2022-09-03T07:32:59;34.00;26.70
64549;DHT22;49838;51.798;10.954;2022-09-03T07:35:29;34.20;26.70
64549;DHT22;49838;51.798;10.954;2022-09-03T07:37:56;34.30;26.20
64549;DHT22;49838;51.798;10.954;2022-09-03T07:40:23;34.40;26.30
64549;DHT22;49838;51.798;10.954;2022-09-03T07:42:55;34.60;26.50
64549;DHT22;49838;51.798;10.954;2022-09-03T07:45:25;34.80;26.40
64549;DHT22;49838;51.798;10.954;2022-09-03T07:47:53;34.80;26.20
64549;DHT22;49838;51.798;10.954;2022-09-03T07:50:20;35.00;26.50
64549;DHT22;49838;51.798;10.954;2022-09-03T07:52:48;35.20;26.50
64549;DHT22;49838;51.798;10.954;2022-09-03T07:55:16;35.40;26.20
64549;DHT22;49838;51.798;10.954;2022-09-03T07:57:43;35.40;26.00
64549;DHT22;49838;51.798;10.954;2022-09-03T08:00:11;35.50;25.90
64549;DHT22;49838;51.798;10.954;2022-09-03T08:02:41;35.60;26.20
64549;DHT22;49838;51.798;10.954;2022-09-03T08:05:08;35.80;26.20
64549;DHT22;49838;51.798;10.954;2022-09-03T08:07:35;35.90;25.90
64549;DHT22;49838;51.798;10.954;2022-09-03T08:10:03;36.10;26.00
64549;DHT22;49838;51.798;10.954;2022-09-03T08:12:31;36.30;26.00
64549;DHT22;49838;51.798;10.954;2022-09-03T08:14:58;36.40;25.90
64549;DHT22;49838;51.798;10.954;2022-09-03T08:17:25;36.50;25.20
64549;DHT22;49838;51.798;10.954;2022-09-03T08:19:54;36.30;25.20
64549;DHT22;49838;51.798;10.954;2022-09-03T08:22:22;36.30;25.30
64549;DHT22;49838;51.798;10.954;2022-09-03T08:24:50;36.40;24.70
64549;DHT22;49838;51.798;10.954;2022-09-03T08:27:20;36.30;25.20
64549;DHT22;49838;51.798;10.954;2022-09-03T08:29:50;36.40;24.80
64549;DHT22;49838;51.798;10.954;2022-09-03T08:32:17;36.50;24.80
64549;DHT22;49838;51.798;10.954;2022-09-03T08:34:45;36.50;24.80
64549;DHT22;49838;51.798;10.954;2022-09-03T08:37:14;36.50;24.90
64549;DHT22;49838;51.798;10.954;2022-09-03T08:39:41;36.60;24.90
64549;DHT22;49838;51.798;10.954;2022-09-03T08:42:15;36.80;25.10
64549;DHT22;49838;51.798;10.954;2022-09-03T08:44:50;36.90;24.30
64549;DHT22;49838;51.798;10.954;2022-09-03T08:47:22;36.90;24.10
64549;DHT22;49838;51.798;10.954;2022-09-03T08:49:55;36.90;24.00
64549;DHT22;49838;51.798;10.954;2022-09-03T08:52:31;37.00;23.00
64549;DHT22;49838;51.798;10.954;2022-09-03T08:55:13;37.10;23.20
64549;DHT22;49838;51.798;10.954;2022-09-03T08:57:45;37.10;22.40
64549;DHT22;49838;51.798;10.954;2022-09-03T09:00:14;37.00;22.20
64549;DHT22;49838;51.798;10.954;2022-09-03T09:02:48;36.90;21.60
64549;DHT22;49838;51.798;10.954;2022-09-03T09:05:24;36.90;22.90
64549;DHT22;49838;51.798;10.954;2022-09-03T09:08:06;37.10;22.50
64549;DHT22;49838;51.798;10.954;2022-09-03T09:10:45;37.20;22.00
64549;DHT22;49838;51.798;10.954;2022-09-03T09:13:17;37.20;21.50
64549;DHT22;49838;51.798;10.954;2022-09-03T09:15:52;37.20;21.60
64549;DHT22;49838;51.798;10.954;2022-09-03T09:18:29;37.20;21.20
64549;DHT22;49838;51.798;10.954;2022-09-03T09:21:12;36.90;20.80
64549;DHT22;49838;51.798;10.954;2022-09-03T09:23:45;36.60;20.90
64549;DHT22;49838;51.798;10.954;2022-09-03T09:26:15;36.60;21.10
64549;DHT22;49838;51.798;10.954;2022-09-03T09:28:44;36.60;20.30
64549;DHT22;49838;51.798;10.954;2022-09-03T09:31:13;36.60;20.90
64549;DHT22;49838;51.798;10.954;2022-09-03T09:33:43;36.60;21.20
64549;DHT22;49838;51.798;10.954;2022-09-03T09:36:11;36.40;21.50
64549;DHT22;49838;51.798;10.954;2022-09-03T09:38:42;36.30;20.80
64549;DHT22;49838;51.798;10.954;2022-09-03T09:41:13;36.00;20.60
64549;DHT22;49838;51.798;10.954;2022-09-03T09:43:44;36.00;20.60
64549;DHT22;49838;51.798;10.954;2022-09-03T09:46:13;36.00;20.70
64549;DHT22;49838;51.798;10.954;2022-09-03T09:48:45;35.90;20.50
64549;DHT22;49838;51.798;10.954;2022-09-03T09:51:17;35.90;19.70
64549;DHT22;49838;51.798;10.954;2022-09-03T09:53:48;35.90;20.80
64549;DHT22;49838;51.798;10.954;2022-09-03T09:56:26;36.00;20.70
64549;DHT22;49838;51.798;10.954;2022-09-03T09:59:01;36.10;20.20
64549;DHT22;49838;51.798;10.954;2022-09-03T10:01:29;36.20;19.90
64549;DHT22;49838;51.798;10.954;2022-09-03T10:03:57;35.80;20.00
64549;DHT22;49838;51.798;10.954;2022-09-03T10:06:27;35.70;20.60
64549;DHT22;49838;51.798;10.954;2022-09-03T10:09:16;36.00;20.70
64549;DHT22;49838;51.798;10.954;2022-09-03T10:11:44;36.40;20.70
64549;DHT22;49838;51.798;10.954;2022-09-03T10:14:17;36.40;19.70
64549;DHT22;49838;51.798;10.954;2022-09-03T10:16:49;36.70;20.70
64549;DHT22;49838;51.798;10.954;2022-09-03T10:19:22;36.90;20.70
64549;DHT22;49838;51.798;10.954;2022-09-03T10:22:00;37.10;20.30
64549;DHT22;49838;51.798;10.954;2022-09-03T10:24:37;37.10;19.80
64549;DHT22;49838;51.798;10.954;2022-09-03T10:27:13;37.10;19.40
64549;DHT22;49838;51.798;10.954;2022-09-03T10:29:43;37.10;20.20
64549;DHT22;49838;51.798;10.954;2022-09-03T10:32:29;37.20;19.70
64549;DHT22;49838;51.798;10.954;2022-09-03T10:35:03;37.30;19.80
64549;DHT22;49838;51.798;10.954;2022-09-03T10:37:38;36.80;18.80
64549;DHT22;49838;51.798;10.954;2022-09-03T10:40:14;36.50;19.40
64549;DHT22;49838;51.798;10.954;2022-09-03T10:46:05;35.90;19.80
64549;DHT22;49838;51.798;10.954;2022-09-03T10:48:38;36.20;20.40
64549;DHT22;49838;51.798;10.954;2022-09-03T10:51:25;36.50;20.70
64549;DHT22;49838;51.798;10.954;2022-09-03T10:54:04;36.80;20.40
64549;DHT22;49838;51.798;10.954;2022-09-03T10:56:46;37.10;20.60
64549;DHT22;49838;51.798;10.954;2022-09-03T10:59:26;37.30;20.90
64549;DHT22;49838;51.798;10.954;2022-09-03T11:02:04;37.30;19.60
64549;DHT22;49838;51.798;10.954;2022-09-03T11:04:45;37.30;20.20
64549;DHT22;49838;51.798;10.954;2022-09-03T11:07:23;36.90;19.80
64549;DHT22;49838;51.798;10.954;2022-09-03T11:09:56;36.50;19.40
64549;DHT22;49838;51.798;10.954;2022-09-03T11:12:34;35.90;19.20
64549;DHT22;49838;51.798;10.954;2022-09-03T11:15:08;35.40;19.30
64549;DHT22;49838;51.798;10.954;2022-09-03T11:17:41;34.90;19.30
64549;DHT22;49838;51.798;10.954;2022-09-03T11:20:16;34.40;19.20
64549;DHT22;49838;51.798;10.954;2022-09-03T11:22:45;34.00;19.40
64549;DHT22;49838;51.798;10.954;2022-09-03T11:25:16;33.70;19.30
64549;DHT22;49838;51.798;10.954;2022-09-03T11:27:54;33.40;19.50
64549;DHT22;49838;51.798;10.954;2022-09-03T11:30:35;33.10;19.60
64549;DHT22;49838;51.798;10.954;2022-09-03T11:33:06;32.80;19.70
64549;DHT22;49838;51.798;10.954;2022-09-03T11:35:37;32.60;19.90
64549;DHT22;49838;51.798;10.954;2022-09-03T11:38:07;32.40;20.00
64549;DHT22;49838;51.798;10.954;2022-09-03T11:40:56;32.20;20.10
64549;DHT22;49838;51.798;10.954;2022-09-03T11:43:28;32.10;20.10
64549;DHT22;49838;51.798;10.954;2022-09-03T11:46:00;31.90;20.30
64549;DHT22;49838;51.798;10.954;2022-09-03T11:48:32;31.70;20.30
64549;DHT22;49838;51.798;10.954;2022-09-03T11:51:03;31.50;20.40
64549;DHT22;49838;51.798;10.954;2022-09-03T11:53:34;31.40;20.60
64549;DHT22;49838;51.798;10.954;2022-09-03T11:56:11;31.20;20.70
64549;DHT22;49838;51.798;10.954;2022-09-03T11:58:45;31.10;20.70
64549;DHT22;49838;51.798;10.954;2022-09-03T12:01:13;30.90;20.70
64549;DHT22;49838;51.798;10.954;2022-09-03T12:03:44;30.90;20.80
64549;DHT22;49838;51.798;10.954;2022-09-03T12:06:21;30.80;21.00
64549;DHT22;49838;51.798;10.954;2022-09-03T12:09:17;30.60;20.90
64549;DHT22;49838;51.798;10.954;2022-09-03T12:11:57;30.60;21.10
64549;DHT22;49838;51.798;10.954;2022-09-03T12:14:38;30.50;21.10
64549;DHT22;49838;51.798;10.954;2022-09-03T12:17:15;30.50;21.10
64549;DHT22;49838;51.798;10.954;2022-09-03T12:19:52;30.50;21.20
64549;DHT22;49838;51.798;10.954;2022-09-03T12:22:21;30.40;21.20
64549;DHT22;49838;51.798;10.954;2022-09-03T12:24:52;30.30;21.20
64549;DHT22;49838;51.798;10.954;2022-09-03T12:27:20;30.30;21.30
64549;DHT22;49838;51.798;10.954;2022-09-03T12:29:56;30.30;21.40
64549;DHT22;49838;51.798;10.954;2022-09-03T12:32:25;30.30;21.30
64549;DHT22;49838;51.798;10.954;2022-09-03T12:34:55;30.30;21.20
64549;DHT22;49838;51.798;10.954;2022-09-03T12:37:23;30.40;21.20
64549;DHT22;49838;51.798;10.954;2022-09-03T12:39:52;30.40;21.40
64549;DHT22;49838;51.798;10.954;2022-09-03T12:42:25;30.30;21.40
64549;DHT22;49838;51.798;10.954;2022-09-03T12:45:03;30.20;21.40
64549;DHT22;49838;51.798;10.954;2022-09-03T12:47:37;30.30;21.40
64549;DHT22;49838;51.798;10.954;2022-09-03T12:50:05;30.40;21.40
64549;DHT22;49838;51.798;10.954;2022-09-03T12:52:35;30.30;21.40
64549;DHT22;49838;51.798;10.954;2022-09-03T12:55:07;30.30;21.30
64549;DHT22;49838;51.798;10.954;2022-09-03T12:57:46;30.20;21.40
64549;DHT22;49838;51.798;10.954;2022-09-03T13:00:19;30.30;21.40
64549;DHT22;49838;51.798;10.954;2022-09-03T13:02:48;30.20;21.40
64549;DHT22;49838;51.798;10.954;2022-09-03T13:05:19;30.20;21.40
64549;DHT22;49838;51.798;10.954;2022-09-03T13:07:56;30.20;21.50
64549;DHT22;49838;51.798;10.954;2022-09-03T13:10:31;30.30;21.50
64549;DHT22;49838;51.798;10.954;2022-09-03T13:13:03;30.20;21.50
64549;DHT22;49838;51.798;10.954;2022-09-03T13:15:54;30.30;21.60
64549;DHT22;49838;51.798;10.954;2022-09-03T13:18:27;30.20;21.50
64549;DHT22;49838;51.798;10.954;2022-09-03T13:21:06;30.20;21.50
64549;DHT22;49838;51.798;10.954;2022-09-03T13:23:43;30.10;21.50
64549;DHT22;49838;51.798;10.954;2022-09-03T13:26:26;30.10;21.50
64549;DHT22;49838;51.798;10.954;2022-09-03T13:29:08;30.10;21.50
64549;DHT22;49838;51.798;10.954;2022-09-03T13:31:51;30.00;21.60
64549;DHT22;49838;51.798;10.954;2022-09-03T13:34:21;29.80;21.60
64549;DHT22;49838;51.798;10.954;2022-09-03T13:36:53;29.70;21.60
64549;DHT22;49838;51.798;10.954;2022-09-03T13:39:25;29.70;21.60
64549;DHT22;49838;51.798;10.954;2022-09-03T13:41:57;29.60;21.70
64549;DHT22;49838;51.798;10.954;2022-09-03T13:44:34;29.60;21.80
64549;DHT22;49838;51.798;10.954;2022-09-03T13:47:11;29.60;21.90
64549;DHT22;49838;51.798;10.954;2022-09-03T13:49:46;29.40;21.90
64549;DHT22;49838;51.798;10.954;2022-09-03T13:52:37;29.30;21.90
64549;DHT22;49838;51.798;10.954;2022-09-03T13:55:08;29.20;22.00
64549;DHT22;49838;51.798;10.954;2022-09-03T13:57:44;29.20;22.00
64549;DHT22;49838;51.798;10.954;2022-09-03T14:00:21;29.20;22.00
64549;DHT22;49838;51.798;10.954;2022-09-03T14:02:52;29.30;22.10
64549;DHT22;49838;51.798;10.954;2022-09-03T14:05:32;29.30;22.10
64549;DHT22;49838;51.798;10.954;2022-09-03T14:08:10;29.20;22.10
64549;DHT22;49838;51.798;10.954;2022-09-03T14:10:51;29.30;22.10
64549;DHT22;49838;51.798;10.954;2022-09-03T14:13:25;29.30;22.00
64549;DHT22;49838;51.798;10.954;2022-09-03T14:15:59;29.40;22.00
64549;DHT22;49838;51.798;10.954;2022-09-03T14:18:42;29.30;22.00
64549;DHT22;49838;51.798;10.954;2022-09-03T14:21:16;29.40;22.00
64549;DHT22;49838;51.798;10.954;2022-09-03T14:23:50;29.60;22.00
64549;DHT22;49838;51.798;10.954;2022-09-03T14:26:27;29.60;22.00
64549;DHT22;49838;51.798;10.954;2022-09-03T14:28:58;29.70;22.00
64549;DHT22;49838;51.798;10.954;2022-09-03T14:31:32;29.60;22.20
64549;DHT22;49838;51.798;10.954;2022-09-03T14:34:21;29.70;22.20
64549;DHT22;49838;51.798;10.954;2022-09-03T14:36:58;29.60;22.20
64549;DHT22;49838;51.798;10.954;2022-09-03T14:39:33;29.60;22.20
64549;DHT22;49838;51.798;10.954;2022-09-03T14:42:17;29.70;22.20
64549;DHT22;49838;51.798;10.954;2022-09-03T14:45:12;29.70;22.20
64549;DHT22;49838;51.798;10.954;2022-09-03T14:51:02;29.60;22.10
64549;DHT22;49838;51.798;10.954;2022-09-03T14:53:47;29.60;22.20
64549;DHT22;49838;51.798;10.954;2022-09-03T14:56:31;29.60;22.20
64549;DHT22;49838;51.798;10.954;2022-09-03T15:02:11;29.60;22.20
64549;DHT22;49838;51.798;10.954;2022-09-03T15:04:50;29.60;22.20
64549;DHT22;49838;51.798;10.954;2022-09-03T15:07:33;29.50;22.20
64549;DHT22;49838;51.798;10.954;2022-09-03T15:10:11;29.60;22.20
64549;DHT22;49838;51.798;10.954;2022-09-03T15:12:47;29.50;22.20
64549;DHT22;49838;51.798;10.954;2022-09-03T15:15:18;29.50;22.30
64549;DHT22;49838;51.798;10.954;2022-09-03T15:17:53;29.50;22.20
64549;DHT22;49838;51.798;10.954;2022-09-03T15:20:30;29.40;22.20
64549;DHT22;49838;51.798;10.954;2022-09-03T15:23:10;29.50;22.30
64549;DHT22;49838;51.798;10.954;2022-09-03T15:25:52;29.30;22.20
64549;DHT22;49838;51.798;10.954;2022-09-03T15:28:37;29.40;22.20
64549;DHT22;49838;51.798;10.954;2022-09-03T15:31:15;29.40;22.20
64549;DHT22;49838;51.798;10.954;2022-09-03T15:33:50;29.50;22.20
64549;DHT22;49838;51.798;10.954;2022-09-03T15:36:21;29.40;22.20
64549;DHT22;49838;51.798;10.954;2022-09-03T15:38:54;29.40;22.20
64549;DHT22;49838;51.798;10.954;2022-09-03T15:41:30;29.30;22.20
64549;DHT22;49838;51.798;10.954;2022-09-03T15:44:05;29.20;22.20
64549;DHT22;49838;51.798;10.954;2022-09-03T15:46:44;29.20;22.20
64549;DHT22;49838;51.798;10.954;2022-09-03T15:49:17;29.20;22.30
64549;DHT22;49838;51.798;10.954;2022-09-03T15:51:59;29.10;22.40
64549;DHT22;49838;51.798;10.954;2022-09-03T15:54:40;29.00;22.40
64549;DHT22;49838;51.798;10.954;2022-09-03T15:57:12;29.00;22.50
64549;DHT22;49838;51.798;10.954;2022-09-03T15:59:48;28.90;22.50